createdAt,value
2024-03-05T00:00:34.714Z,-11329.03
2024-03-05T00:03:43.302Z,-11333.28
2024-03-05T00:06:49.859Z,-11311.72
2024-03-05T00:09:57.525Z,-11320.72
2024-03-05T00:13:04.609Z,-11319.31
2024-03-05T00:16:11.902Z,-11331.84
2024-03-05T00:19:19.872Z,-11316.66
2024-03-05T00:22:26.806Z,-11316.94
2024-03-05T00:25:33.552Z,-11319.59
2024-03-05T00:28:40.342Z,-11315.81
2024-03-05T00:31:47.020Z,-11312.72
2024-03-05T00:34:55.236Z,-11303.69
2024-03-05T00:38:02.087Z,-11306.78
2024-03-05T00:41:10.158Z,-11309.59
2024-03-05T00:44:18.334Z,-11322.28
2024-03-05T00:47:24.936Z,-11319.31
2024-03-05T00:50:33.046Z,-11326.78
2024-03-05T00:53:39.604Z,-11321.16
2024-03-05T00:56:46.428Z,-11307.91
2024-03-05T00:59:54.768Z,-11320.72
2024-03-05T01:03:01.744Z,-11319.47
2024-03-05T01:06:10.242Z,-11319.47
2024-03-05T01:09:20.312Z,-11317.34
2024-03-05T01:12:26.928Z,-11319.19
2024-03-05T01:15:33.689Z,-11319.31
2024-03-05T01:18:40.140Z,-11325.22
2024-03-05T01:21:48.556Z,-11331.84
2024-03-05T01:24:55.012Z,-11318.75
2024-03-05T01:28:01.575Z,-11332.69
2024-03-05T01:31:10.090Z,-11329.31
2024-03-05T01:34:17.524Z,-11325.66
2024-03-05T01:37:25.950Z,-11335.78
2024-03-05T01:40:32.593Z,-11332.69
2024-03-05T01:43:39.311Z,-11335.09
2024-03-05T01:46:46.831Z,-11335.50
2024-03-05T01:49:53.547Z,-11335.78
2024-03-05T01:53:01.892Z,-11342.69
2024-03-05T01:56:09.515Z,-11347.22
2024-03-05T01:59:17.053Z,-11341.00
2024-03-05T02:02:24.448Z,-11334.81
2024-03-05T02:05:31.789Z,-11339.19
2024-03-05T02:08:41.240Z,-11336.50
2024-03-05T02:11:53.031Z,-11331.84
2024-03-05T02:15:06.445Z,-11335.66
2024-03-05T02:18:13.531Z,-11329.03
2024-03-05T02:21:25.242Z,-11329.47
2024-03-05T02:24:32.027Z,-11331.84
2024-03-05T02:27:39.358Z,-11333.28
2024-03-05T02:30:46.324Z,-11318.06
2024-03-05T02:33:55.090Z,-11307.91
2024-03-05T02:37:04.916Z,-11325.38
2024-03-05T02:40:14.774Z,-11324.66
2024-03-05T02:43:22.385Z,-11336.50
2024-03-05T02:46:29.284Z,-11334.66
2024-03-05T02:49:37.988Z,-11336.50
2024-03-05T02:52:46.359Z,-11333.41
2024-03-05T02:55:53.105Z,-11329.75
2024-03-05T02:58:59.880Z,-11330.88
2024-03-05T03:02:06.796Z,-11334.94
2024-03-05T03:05:14.196Z,-11321.44
2024-03-05T03:08:22.129Z,-11325.38
2024-03-05T03:11:29.448Z,-11319.19
2024-03-05T03:14:35.940Z,-11324.66
2024-03-05T03:17:42.843Z,-11327.91
2024-03-05T03:20:49.146Z,-11324.09
2024-03-05T03:23:57.426Z,-11336.09
2024-03-05T03:27:04.554Z,-11347.06
2024-03-05T03:30:19.337Z,-11344.25
2024-03-05T03:33:27.699Z,-11336.94
2024-03-05T03:36:34.568Z,-11336.38
2024-03-05T03:39:44.445Z,-11341.16
2024-03-05T03:42:51.988Z,-11339.75
2024-03-05T03:45:58.707Z,-11336.38
2024-03-05T03:49:06.905Z,-11327.91
2024-03-05T03:52:13.536Z,-11332.28
2024-03-05T03:55:21.859Z,-11329.59
2024-03-05T03:58:29.078Z,-11330.44
2024-03-05T04:01:36.367Z,-11329.03
2024-03-05T04:04:43.128Z,-11325.94
2024-03-05T04:07:49.683Z,-11341.00
2024-03-05T04:10:57.618Z,-11332.41
2024-03-05T04:14:04.801Z,-11331.28
2024-03-05T04:17:11.976Z,-11329.88
2024-03-05T04:20:18.701Z,-11337.78
2024-03-05T04:23:25.727Z,-11320.59
2024-03-05T04:26:38.995Z,-11328.75
2024-03-05T04:29:48.660Z,-11326.78
2024-03-05T04:33:05.355Z,-11323.97
2024-03-05T04:36:11.873Z,-11320.88
2024-03-05T04:39:18.437Z,-11325.38
2024-03-05T04:42:26.383Z,-11319.75
2024-03-05T04:45:32.903Z,-11313.56
2024-03-05T04:48:40.600Z,-11321.72
2024-03-05T04:51:47.201Z,-11332.84
2024-03-05T04:54:55.222Z,-11315.53
2024-03-05T04:58:02.686Z,-11336.78
2024-03-05T05:01:09.685Z,-11322.56
2024-03-05T05:04:17.258Z,-11307.22
2024-03-05T05:07:25.260Z,-11305.09
2024-03-05T05:10:33.401Z,-11324.81
2024-03-05T05:13:44.449Z,-11318.47
2024-03-05T05:16:53.073Z,-11307.78
2024-03-05T05:20:01.865Z,-11327.06
2024-03-05T05:23:08.759Z,-11322.56
2024-03-05T05:26:15.173Z,-11322.97
2024-03-05T05:29:31.752Z,-11299.47
2024-03-05T05:32:47.093Z,-11322.28
2024-03-05T05:35:54.010Z,-11306.22
2024-03-05T05:39:01.507Z,-11303.56
2024-03-05T05:42:08.933Z,-11303.69
2024-03-05T05:45:16.975Z,-11330.72
2024-03-05T05:48:29.553Z,-11310.16
2024-03-05T05:51:36.698Z,-11319.59
2024-03-05T05:54:44.940Z,-11319.31
2024-03-05T05:57:53.025Z,-11328.06
2024-03-05T06:01:00.821Z,-11321.28
2024-03-05T06:04:07.677Z,-11316.94
2024-03-05T06:07:14.337Z,-11330.31
2024-03-05T06:10:21.291Z,-11316.50
2024-03-05T06:13:28.212Z,-11323.25
2024-03-05T06:16:36.455Z,-11325.94
2024-03-05T06:19:43.231Z,-11323.97
2024-03-05T06:22:50.018Z,-11344.81
2024-03-05T06:25:56.883Z,-11347.63
2024-03-05T06:29:05.638Z,-11343.81
2024-03-05T06:32:14.087Z,-11361.44
2024-03-05T06:35:24.410Z,-11348.63
2024-03-05T06:38:30.975Z,-11355.22
2024-03-05T06:41:38.669Z,-11349.47
2024-03-05T06:44:48.882Z,-11337.78
2024-03-05T06:48:10.429Z,-11353.41
2024-03-05T06:51:33.020Z,-11342.56
2024-03-05T06:54:57.134Z,-11296.38
2024-03-05T06:58:05.613Z,-11318.06
2024-03-05T07:01:13.034Z,-11318.75
2024-03-05T07:04:21.298Z,-11333.41
2024-03-05T07:07:27.572Z,-11338.06
2024-03-05T07:10:35.262Z,-11346.38
2024-03-05T07:13:45.608Z,-11328.63
2024-03-05T07:16:53.510Z,-11330.72
2024-03-05T07:20:04.485Z,-11338.34
2024-03-05T07:23:10.955Z,-11337.50
2024-03-05T07:26:17.729Z,-11338.34
2024-03-05T07:29:24.337Z,-11354.38
2024-03-05T07:32:30.973Z,-11333.13
2024-03-05T07:35:38.909Z,-11350.44
2024-03-05T07:38:45.263Z,-11334.53
2024-03-05T07:41:51.652Z,-11320.16
2024-03-05T07:44:58.229Z,-11288.34
2024-03-05T07:48:04.513Z,-11318.06
2024-03-05T07:51:13.077Z,-11323.53
2024-03-05T07:54:22.097Z,-11345.38
2024-03-05T07:57:28.605Z,-11331.28
2024-03-05T08:00:36.763Z,-11359.03
2024-03-05T08:04:01.756Z,-11341.28
2024-03-05T08:07:12.404Z,-11311.00
2024-03-05T08:10:19.539Z,-11326.06
2024-03-05T08:13:25.808Z,-11329.03
2024-03-05T08:16:35.614Z,-11339.19
2024-03-05T08:19:43.039Z,-11338.91
2024-03-05T08:22:51.281Z,-11318.34
2024-03-05T08:25:58.154Z,-11305.38
2024-03-05T08:29:05.520Z,-11341.44
2024-03-05T08:32:12.824Z,-11360.03
2024-03-05T08:35:19.331Z,-11341.84
2024-03-05T08:38:28.301Z,-11341.44
2024-03-05T08:41:36.276Z,-11343.41
2024-03-05T08:44:42.760Z,-11335.94
2024-03-05T08:47:50.075Z,-11345.66
2024-03-05T08:50:56.334Z,-11342.00
2024-03-05T08:54:04.295Z,-11316.09
2024-03-05T08:57:11.144Z,-11355.78
2024-03-05T09:00:32.268Z,-11334.09
2024-03-05T09:03:45.550Z,-11339.59
2024-03-05T09:06:54.553Z,-11369.03
2024-03-05T09:10:02.659Z,-11339.31
2024-03-05T09:13:09.805Z,-11353.53
2024-03-05T09:16:16.413Z,-11352.00
2024-03-05T09:19:24.250Z,-11353.25
2024-03-05T09:22:30.799Z,-11371.56
2024-03-05T09:25:40.205Z,-11394.53
2024-03-05T09:28:46.691Z,-11380.19
2024-03-05T09:31:53.061Z,-11383.41
2024-03-05T09:34:59.738Z,-11367.50
2024-03-05T09:38:06.587Z,-11334.38
2024-03-05T09:41:15.146Z,-11350.72
2024-03-05T09:44:22.758Z,-11369.88
2024-03-05T09:47:31.605Z,-11353.81
2024-03-05T09:50:39.303Z,-11360.72
2024-03-05T09:53:45.469Z,-11363.97
2024-03-05T09:56:56.525Z,-11375.94
2024-03-05T10:00:05.404Z,-11373.28
2024-03-05T10:03:12.400Z,-11381.03
2024-03-05T10:06:18.637Z,-11381.16
2024-03-05T10:09:26.828Z,-11382.28
2024-03-05T10:12:34.505Z,-11363.13
2024-03-05T10:15:44.403Z,-11381.03
2024-03-05T10:18:51.280Z,-11361.44
2024-03-05T10:22:12.149Z,-11392.28
2024-03-05T10:25:19.411Z,-11370.03
2024-03-05T10:28:32.260Z,-11390.47
2024-03-05T10:31:41.065Z,-11375.94
2024-03-05T10:34:47.716Z,-11383.00
2024-03-05T10:37:59.223Z,-11343.97
2024-03-05T10:41:08.994Z,-11363.81
2024-03-05T10:44:18.388Z,-11367.91
2024-03-05T10:47:28.256Z,-11375.53
2024-03-05T10:50:38.383Z,-11383.13
2024-03-05T10:53:45.296Z,-11364.41
2024-03-05T10:56:53.518Z,-11342.13
2024-03-05T11:00:00.545Z,-11332.69
2024-03-05T11:03:09.437Z,-11339.87
2024-03-05T11:06:18.399Z,-11364.81
2024-03-05T11:09:25.497Z,-11364.25
2024-03-05T11:12:32.302Z,-11354.09
2024-03-05T11:15:41.387Z,-11349.31
2024-03-05T11:18:49.204Z,-11334.09
2024-03-05T11:21:56.038Z,-11351.00
2024-03-05T11:25:04.209Z,-11357.22
2024-03-05T11:28:12.324Z,-11341.16
2024-03-05T11:31:22.584Z,-11384.41
2024-03-05T11:34:30.734Z,-11368.47
2024-03-05T11:37:49.110Z,-11372.16
2024-03-05T11:41:00.821Z,-11366.22
2024-03-05T11:44:08.432Z,-11359.75
2024-03-05T11:47:21.730Z,-11365.66
2024-03-05T11:50:27.899Z,-11380.47
2024-03-05T11:53:38.190Z,-11369.47
2024-03-05T11:56:47.013Z,-11371.28
2024-03-05T11:59:53.667Z,-11352.84
2024-03-05T12:03:01.880Z,-11353.69
2024-03-05T12:06:08.887Z,-11349.88
2024-03-05T12:09:20.180Z,-11369.88
2024-03-05T12:12:26.726Z,-11347.63
2024-03-05T12:15:34.669Z,-11372.00
2024-03-05T12:18:42.390Z,-11373.97
2024-03-05T12:21:50.007Z,-11366.50
2024-03-05T12:24:56.730Z,-11361.16
2024-03-05T12:28:06.094Z,-11367.22
2024-03-05T12:31:13.076Z,-11349.59
2024-03-05T12:34:21.829Z,-11369.03
2024-03-05T12:37:30.992Z,-11336.94
2024-03-05T12:40:37.767Z,-11363.41
2024-03-05T12:43:53.352Z,-11352.13
2024-03-05T12:47:09.455Z,-11338.06
2024-03-05T12:50:20.731Z,-11336.22
2024-03-05T12:53:27.549Z,-11366.66
2024-03-05T12:56:43.066Z,-11362.00
2024-03-05T12:59:49.394Z,-11352.41
2024-03-05T13:02:57.393Z,-11362.28
2024-03-05T13:06:05.749Z,-11365.25
2024-03-05T13:09:12.349Z,-11344.09
2024-03-05T13:12:20.275Z,-11342.00
2024-03-05T13:15:26.950Z,-11351.72
2024-03-05T13:18:33.245Z,-11363.69
2024-03-05T13:21:41.684Z,-11343.25
2024-03-05T13:24:48.759Z,-11327.22
2024-03-05T13:27:55.980Z,-11337.78
2024-03-05T13:31:04.558Z,-11360.31
2024-03-05T13:34:11.340Z,-11367.91
2024-03-05T13:37:22.818Z,-11366.78
2024-03-05T13:40:29.734Z,-11359.87
2024-03-05T13:43:36.729Z,-11339.19
2024-03-05T13:46:43.189Z,-11346.50
2024-03-05T13:49:49.845Z,-11344.38
2024-03-05T13:52:57.989Z,-11332.69
2024-03-05T13:56:06.135Z,-11340.03
2024-03-05T13:59:13.037Z,-11348.75
2024-03-05T14:02:19.873Z,-11342.00
2024-03-05T14:05:26.703Z,-11349.47
2024-03-05T14:08:34.691Z,-11348.19
2024-03-05T14:11:42.230Z,-11342.28
2024-03-05T14:14:48.566Z,-11343.69
2024-03-05T14:17:55.320Z,-11357.34
2024-03-05T14:21:02.656Z,-11359.47
2024-03-05T14:24:14.107Z,-11349.88
2024-03-05T14:27:20.924Z,-11343.81
2024-03-05T14:30:27.683Z,-11355.78
2024-03-05T14:33:34.467Z,-11362.41
2024-03-05T14:36:41.310Z,-11376.66
2024-03-05T14:39:50.039Z,-11391.72
2024-03-05T14:42:57.030Z,-11362.84
2024-03-05T14:46:03.906Z,-11353.53
2024-03-05T14:49:12.468Z,-11354.09
2024-03-05T14:52:19.309Z,-11366.09
2024-03-05T14:55:28.554Z,-11370.03
2024-03-05T14:58:34.999Z,-11365.38
2024-03-05T15:01:41.889Z,-11359.75
2024-03-05T15:04:48.550Z,-11350.31
2024-03-05T15:07:55.717Z,-11345.53
2024-03-05T15:11:03.776Z,-11334.53
2024-03-05T15:14:10.531Z,-11333.97
2024-03-05T15:17:17.591Z,-11370.72
2024-03-05T15:20:25.194Z,-11337.22
2024-03-05T15:23:31.985Z,-11336.09
2024-03-05T15:26:42.671Z,-11354.53
2024-03-05T15:29:51.962Z,-11361.72
2024-03-05T15:32:58.942Z,-11356.06
2024-03-05T15:36:06.629Z,-11370.72
2024-03-05T15:39:16.117Z,-11365.66
2024-03-05T15:42:24.159Z,-11366.78
2024-03-05T15:45:31.983Z,-11373.97
2024-03-05T15:48:38.789Z,-11360.72
2024-03-05T15:51:45.355Z,-11363.13
2024-03-05T15:54:51.719Z,-11334.66
2024-03-05T15:58:09.749Z,-11385.38
2024-03-05T16:01:18.070Z,-11330.44
2024-03-05T16:04:48.605Z,-11350.16
2024-03-05T16:07:50.885Z,-11347.34
2024-03-05T16:10:57.547Z,-11356.94
2024-03-05T16:14:06.811Z,-11348.06
2024-03-05T16:17:14.385Z,-11362.84
2024-03-05T16:20:21.121Z,-11341.72
2024-03-05T16:23:27.754Z,-11354.25
2024-03-05T16:26:35.043Z,-11341.16
2024-03-05T16:29:42.820Z,-11372.00
2024-03-05T16:32:49.220Z,-11355.78
2024-03-05T16:35:56.044Z,-11341.44
2024-03-05T16:39:02.892Z,-11338.63
2024-03-05T16:42:12.391Z,-11349.19
2024-03-05T16:45:20.434Z,-11330.16
2024-03-05T16:48:26.621Z,-11331.00
2024-03-05T16:51:33.044Z,-11339.75
2024-03-05T16:54:39.586Z,-11343.53
2024-03-05T16:57:47.090Z,-11362.56
2024-03-05T17:00:58.037Z,-11345.81
2024-03-05T17:04:08.915Z,-11342.84
2024-03-05T17:07:15.175Z,-11361.16
2024-03-05T17:10:24.934Z,-11361.72
2024-03-05T17:13:37.315Z,-11359.75
2024-03-05T17:16:47.123Z,-11359.75
2024-03-05T17:19:57.681Z,-11334.09
2024-03-05T17:23:04.667Z,-11355.22
2024-03-05T17:26:13.473Z,-11357.91
2024-03-05T17:29:19.866Z,-11351.84
2024-03-05T17:32:32.695Z,-11361.84
2024-03-05T17:35:39.339Z,-11369.31
2024-03-05T17:38:46.029Z,-11365.81
2024-03-05T17:41:53.108Z,-11366.22
2024-03-05T17:44:59.912Z,-11359.75
2024-03-05T17:48:08.753Z,-11367.50
2024-03-05T17:51:15.304Z,-11349.31
2024-03-05T17:54:22.558Z,-11350.44
2024-03-05T17:57:32.722Z,-11363.97
2024-03-05T18:00:46.377Z,-11357.91
2024-03-05T18:03:54.872Z,-11367.63
2024-03-05T18:07:03.142Z,-11363.41
2024-03-05T18:10:10.376Z,-11345.38
2024-03-05T18:13:18.724Z,-11351.56
2024-03-05T18:16:26.225Z,-11344.97
2024-03-05T18:19:34.914Z,-11348.19
2024-03-05T18:22:41.816Z,-11334.66
2024-03-05T18:25:49.737Z,-11336.50
2024-03-05T18:28:56.390Z,-11348.34
2024-03-05T18:32:05.640Z,-11343.41
2024-03-05T18:35:13.582Z,-11337.34
2024-03-05T18:38:27.839Z,-11333.56
2024-03-05T18:41:36.169Z,-11341.16
2024-03-05T18:44:42.689Z,-11342.41
2024-03-05T18:47:59.234Z,-11344.38
2024-03-05T18:51:15.296Z,-11347.50
2024-03-05T18:54:23.604Z,-11323.69
2024-03-05T18:57:30.620Z,-11333.84
2024-03-05T19:00:38.940Z,-11344.38
2024-03-05T19:03:46.983Z,-11346.50
2024-03-05T19:06:54.922Z,-11347.22
2024-03-05T19:10:01.232Z,-11360.03
2024-03-05T19:13:08.137Z,-11346.78
2024-03-05T19:16:15.590Z,-11339.19
2024-03-05T19:19:22.336Z,-11328.19
2024-03-05T19:22:30.864Z,-11345.94
2024-03-05T19:25:37.183Z,-11344.66
2024-03-05T19:28:44.672Z,-11330.72
2024-03-05T19:31:51.201Z,-11333.28
2024-03-05T19:34:58.222Z,-11332.97
2024-03-05T19:38:07.276Z,-11338.47
2024-03-05T19:41:15.215Z,-11330.31
2024-03-05T19:44:22.646Z,-11344.25
2024-03-05T19:47:34.190Z,-11331.72
2024-03-05T19:50:40.660Z,-11339.03
2024-03-05T19:53:49.593Z,-11340.16
2024-03-05T19:56:57.169Z,-11340.31
2024-03-05T20:00:13.509Z,-11358.75
2024-03-05T20:03:20.536Z,-11356.66
2024-03-05T20:06:27.334Z,-11330.72
2024-03-05T20:09:36.288Z,-11335.94
2024-03-05T20:12:42.942Z,-11327.34
2024-03-05T20:15:49.828Z,-11336.38
2024-03-05T20:18:56.542Z,-11345.94
2024-03-05T20:22:02.877Z,-11351.84
2024-03-05T20:25:11.011Z,-11345.94
2024-03-05T20:28:18.169Z,-11336.94
2024-03-05T20:31:24.944Z,-11340.31
2024-03-05T20:34:32.992Z,-11347.78
2024-03-05T20:37:39.767Z,-11305.09
2024-03-05T20:40:47.802Z,-11342.56
2024-03-05T20:43:54.951Z,-11341.28
2024-03-05T20:47:01.804Z,-11325.66
2024-03-05T20:50:10.775Z,-11328.75
2024-03-05T20:53:17.629Z,-11339.03
2024-03-05T20:56:26.127Z,-11316.94
2024-03-05T20:59:34.718Z,-11335.09
2024-03-05T21:02:42.480Z,-11331.84
2024-03-05T21:05:49.152Z,-11325.94
2024-03-05T21:08:55.609Z,-11309.03
2024-03-05T21:12:04.888Z,-11321.28
2024-03-05T21:15:13.923Z,-11323.13
2024-03-05T21:18:21.443Z,-11306.66
2024-03-05T21:21:28.075Z,-11304.97
2024-03-05T21:24:37.204Z,-11314.69
2024-03-05T21:27:46.805Z,-11306.94
2024-03-05T21:30:53.644Z,-11293.56
2024-03-05T21:34:00.025Z,-11313.41
2024-03-05T21:37:07.600Z,-11303.28
2024-03-05T21:40:15.176Z,-11303.13
2024-03-05T21:43:23.685Z,-11306.38
2024-03-05T21:46:30.309Z,-11313.00
2024-03-05T21:49:37.176Z,-11299.06
2024-03-05T21:52:47.474Z,-11295.94
2024-03-05T21:55:54.458Z,-11269.06
2024-03-05T21:59:04.743Z,-11284.13
2024-03-05T22:02:10.982Z,-11276.94
2024-03-05T22:05:17.550Z,-11269.22
2024-03-05T22:08:23.823Z,-11240.78
2024-03-05T22:11:30.560Z,-11251.63
2024-03-05T22:14:38.368Z,-11283.69
2024-03-05T22:17:45.129Z,-11258.09
2024-03-05T22:20:54.669Z,-11230.22
2024-03-05T22:24:01.592Z,-11250.78
2024-03-05T22:27:07.841Z,-11287.06
2024-03-05T22:30:16.346Z,-11253.03
2024-03-05T22:33:23.836Z,-11235.31
2024-03-05T22:36:30.487Z,-11243.19
2024-03-05T22:39:38.142Z,-11270.19
2024-03-05T22:42:46.265Z,-11240.78
2024-03-05T22:45:54.796Z,-11221.78
2024-03-05T22:49:02.364Z,-11249.09
2024-03-05T22:52:08.524Z,-11262.59
2024-03-05T22:55:14.747Z,-11252.31
2024-03-05T22:58:21.355Z,-11247.25
2024-03-05T23:01:29.410Z,-11257.94
2024-03-05T23:04:36.140Z,-11226.44
2024-03-05T23:07:42.331Z,-11235.59
2024-03-05T23:10:49.805Z,-11209.41
2024-03-05T23:13:57.110Z,-11203.66
2024-03-05T23:17:05.015Z,-11204.91
2024-03-05T23:20:12.946Z,-11226.28
2024-03-05T23:23:19.722Z,-11213.91
2024-03-05T23:26:26.482Z,-11220.94
2024-03-05T23:29:32.843Z,-11252.88
2024-03-05T23:32:41.081Z,-11252.19
2024-03-05T23:35:48.914Z,-11252.59
2024-03-05T23:38:55.678Z,-11244.59
2024-03-05T23:42:02.217Z,-11227.84
2024-03-05T23:45:10.703Z,-11217.28
2024-03-05T23:48:18.790Z,-11212.22
2024-03-05T23:51:26.664Z,-11208.00
2024-03-05T23:54:34.159Z,-11204.34
2024-03-05T23:57:40.811Z,-11216.03
